Cadillac, MI

7:42 PM EDT on August 01, 2015 (GMT -0400)
Wexford County | | Change Station
CLOSE
Current Station
Airport
Location: Cadillac,
Elevation: 1306 ft
Nearby Weather Stations

Elev 1306 ft 44.28 °N, 85.42 °W | Updated 8 minutes ago

Clear
Clear
74 °F
Feels Like 74 °F
N
8
Wind Variable Wind from West

Today
High -- | Low -- °F
--% Chance of Precip.
Yesterday
High -- | Low -- °F
Precip. -- in
6:28 AM 9:06 PM
Waning Gibbous, 97% visible
Pressure 29.87 in
Visibility 10.0 miles
Clouds Clear
Dew Point 50 °F
Humidity 44%
Rainfall 0.00 in
Snow Depth Not available.
UV 1 out of 12
Pollen 7.20 out of 12
Air Quality Not available.
Flu Activity Not available.
METAR KCAD 012334Z AUTO 27007KT 10SM CLR 23/10 A2987 RMK AO2 T02330103

More Conditions Fewer Conditions

Pressure 29.87 in
Visibility 10.0 miles
Clouds Clear
Dew Point 50 °F
Humidity 44%
Rainfall 0.00 in
Snow Depth Not available.
UV 1 out of 12
Pollen 7.20 out of 12
Air Quality Not available.
Flu Activity Not available.
METAR KCAD 012334Z AUTO 27007KT 10SM CLR 23/10 A2987 RMK AO2 T02330103

More Conditions Fewer Conditions

Nowcast | as of 7:00 PM EDT on August 1, 2015

At 8 PM...mostly clear. Temperature 72. West winds 9 mph. At 10 PM...mostly clear. Temperature 66. Southwest winds 5 mph. At 12 am...mostly clear. Temperature 62. Light winds. At 2 am...partly cloudy. Temperature 61. Southwest winds 6 mph.

×

10-Day Weather Forecast

×

Almanac

Astronomy

Aug. 01, 2015 Rise Set
Actual Time
Civil Twilight
Nautical Twilight
Astronomical Twilight
Moon
Length of Visible Light
Length of Day
Tomorrow will be .
, % of the Moon is Illuminated

Today's Extremes

State Highs State Lows

Community

WunderPhotos

Upload Photos

1,843,094 photos uploaded!

WunderBlogs® & News

Nearby

Air Quality

  Air Quality AQ Index Pollutant
Not available.

Snow Depth

Station Depth Elevation

Earthquake Activity

City Distance Mag. Time & Date
Minimum magnitude displayed is 2.5.

Coastal Water Temperatures

Place Temperature

Stations

Nearby Weather Stations

Station Location Temp. Windchill Dew Point Humidity Wind Precip. Elev Updated Type